Time;durP1;ratioP1;P1;durP2;ratioP2;P2;SDS_P1;SDS_P2;PMS_P1;PMS_P2;Temp;Humidity;BMP_temperature;BMP_pressure;BME280_temperature;BME280_humidity;BME280_pressure;Samples;Min_cycle;Max_cycle;Signal;HPM_P1;HPM_P2
2023/07/06 00:01:00;;;;;;;4.00;2.90;;;;;;;19.74;74.29;99945.48;129483;1270;107544;-76
2023/07/06 00:04:23;;;;;;;3.50;2.90;;;;;;;19.75;74.39;99944.96;129519;1270;107868;-77
2023/07/06 00:07:29;;;;;;;3.10;2.50;;;;;;;19.76;74.35;99942.45;129499;1271;106906;-76
2023/07/06 00:10:39;;;;;;;3.80;2.50;;;;;;;19.75;74.50;99944.92;129498;1268;107620;-76
2023/07/06 00:13:45;;;;;;;4.10;2.50;;;;;;;19.72;74.60;99946.89;129546;1274;107267;-78
2023/07/06 00:17:07;;;;;;;3.30;2.80;;;;;;;19.70;74.66;99943.38;129499;1270;107409;-75
2023/07/06 00:20:13;;;;;;;6.30;3.00;;;;;;;19.70;74.75;99943.84;129566;1270;107410;-75
2023/07/06 00:23:20;;;;;;;4.80;2.80;;;;;;;19.68;74.69;99944.94;129488;1273;107528;-75
2023/07/06 00:26:25;;;;;;;5.50;2.60;;;;;;;19.67;74.79;99942.77;129537;1271;107412;-78
2023/07/06 00:29:34;;;;;;;3.00;2.20;;;;;;;19.62;74.82;99941.81;129461;1271;107481;-77
2023/07/06 00:32:40;;;;;;;4.80;2.60;;;;;;;19.57;74.81;99944.52;129346;1272;107412;-78
2023/07/06 00:35:46;;;;;;;3.60;2.60;;;;;;;19.53;74.91;99944.17;129494;1272;107485;-78
2023/07/06 00:38:52;;;;;;;4.40;3.10;;;;;;;19.51;75.02;99940.73;129382;1271;203182;-78
2023/07/06 00:41:58;;;;;;;5.40;2.40;;;;;;;19.47;75.10;99937.44;129555;1268;107293;-77
2023/07/06 00:45:09;;;;;;;7.70;3.10;;;;;;;19.30;75.83;99937.27;129340;1272;107397;-77
2023/07/06 00:48:21;;;;;;;4.10;2.90;;;;;;;19.17;75.52;99936.09;129392;1274;107670;-78
2023/07/06 00:51:32;;;;;;;4.80;2.70;;;;;;;19.12;75.72;99939.74;129505;1273;107534;-78
2023/07/06 00:54:42;;;;;;;5.80;2.60;;;;;;;19.01;76.00;99939.47;129214;1271;107455;-77
2023/07/06 00:57:51;;;;;;;4.00;2.50;;;;;;;18.96;75.93;99941.73;129557;1268;105983;-78
2023/07/06 01:01:01;;;;;;;4.50;3.10;;;;;;;18.93;75.89;99940.85;129388;1270;107313;-77
2023/07/06 01:04:08;;;;;;;4.20;2.90;;;;;;;18.90;75.86;99942.73;129508;1271;107524;-77
2023/07/06 01:07:20;;;;;;;5.50;3.20;;;;;;;18.86;75.95;99945.36;129505;1270;107763;-78
2023/07/06 01:10:27;;;;;;;4.70;3.10;;;;;;;18.80;76.04;99940.59;129501;1281;108206;-77
2023/07/06 01:13:35;;;;;;;4.30;2.80;;;;;;;18.77;76.08;99935.07;129571;1268;107460;-76
2023/07/06 01:16:46;;;;;;;3.80;2.80;;;;;;;18.73;76.15;99939.52;129563;1268;108411;-76
2023/07/06 01:20:13;;;;;;;3.50;2.70;;;;;;;18.74;76.17;99943.06;129521;1270;107543;-76
2023/07/06 01:24:00;;;;;;;4.70;2.70;;;;;;;18.72;76.34;99948.56;129483;1267;106318;-76
2023/07/06 01:27:24;;;;;;;5.30;2.90;;;;;;;18.70;76.37;99952.96;129238;1287;105775;-76
2023/07/06 01:30:55;;;;;;;4.30;2.90;;;;;;;18.71;76.42;99952.94;129526;1271;107492;-76
2023/07/06 01:34:07;;;;;;;5.00;2.80;;;;;;;18.68;76.56;99957.21;129504;1270;107505;-76
2023/07/06 01:37:19;;;;;;;4.20;2.80;;;;;;;18.68;76.57;99956.67;129536;1267;107602;-76
2023/07/06 01:40:25;;;;;;;3.40;2.70;;;;;;;18.69;76.73;99950.89;129515;1270;107571;-76
2023/07/06 01:43:31;;;;;;;3.70;2.90;;;;;;;18.70;76.53;99950.80;129557;1271;107611;-76
2023/07/06 01:46:38;;;;;;;3.30;2.80;;;;;;;18.70;76.67;99950.48;129376;1273;107628;-76
2023/07/06 01:49:43;;;;;;;4.70;2.80;;;;;;;18.65;76.65;99952.38;129483;1268;107761;-76
2023/07/06 01:53:05;;;;;;;4.50;2.50;;;;;;;18.62;76.63;99949.34;129488;1275;107622;-77
2023/07/06 01:56:18;;;;;;;4.70;2.60;;;;;;;18.63;76.81;99956.11;129435;1270;107590;-76
2023/07/06 01:59:27;;;;;;;3.80;2.50;;;;;;;18.64;76.78;99957.77;129602;1280;107489;-76
2023/07/06 02:02:33;;;;;;;4.50;2.60;;;;;;;18.65;76.93;99960.14;129508;1270;107407;-76
2023/07/06 02:05:41;;;;;;;3.90;3.00;;;;;;;18.68;76.95;99960.88;129524;1282;108690;-76
2023/07/06 02:08:47;;;;;;;7.10;3.00;;;;;;;18.68;76.96;99963.54;129401;1273;107458;-76
2023/07/06 02:11:53;;;;;;;4.90;3.40;;;;;;;18.68;77.16;99967.98;129404;1281;105750;-77
2023/07/06 02:14:58;;;;;;;5.40;2.70;;;;;;;18.71;77.19;99972.40;129492;1273;107230;-76
2023/07/06 02:18:04;;;;;;;5.50;3.60;;;;;;;18.71;77.22;99973.77;129504;1280;106584;-76
2023/07/06 02:21:10;;;;;;;5.90;3.70;;;;;;;18.75;77.45;99974.33;129500;1280;107539;-76
2023/07/06 02:24:15;;;;;;;5.00;3.90;;;;;;;18.78;77.66;99979.09;129515;1268;107542;-76
2023/07/06 02:27:21;;;;;;;5.00;3.90;;;;;;;18.76;77.95;99982.59;129568;1280;107581;-76
2023/07/06 02:30:28;;;;;;;4.50;3.80;;;;;;;18.73;78.12;99986.85;129307;1281;107208;-76
2023/07/06 02:33:34;;;;;;;5.80;3.70;;;;;;;18.71;78.34;99987.23;129484;1272;107489;-76
2023/07/06 02:36:40;;;;;;;8.80;4.40;;;;;;;18.74;78.46;99985.59;129503;1271;107561;-76
2023/07/06 02:39:45;;;;;;;5.50;4.20;;;;;;;18.79;78.51;99991.83;129371;1268;107422;-75
2023/07/06 02:42:51;;;;;;;5.70;4.30;;;;;;;18.85;78.83;99995.48;129371;1273;107497;-76
2023/07/06 02:45:56;;;;;;;7.00;4.60;;;;;;;18.82;78.96;100000.91;129522;1281;106717;-76
2023/07/06 02:49:03;;;;;;;7.50;4.70;;;;;;;18.78;79.32;100002.59;129490;1280;107355;-76
2023/07/06 02:52:09;;;;;;;8.60;4.80;;;;;;;18.70;79.72;100007.41;129533;1280;107418;-75
2023/07/06 02:55:16;;;;;;;6.30;4.80;;;;;;;18.68;80.08;100006.56;129517;1270;107441;-76
2023/07/06 02:58:21;;;;;;;7.60;4.80;;;;;;;18.68;80.32;100003.95;129563;1274;107721;-76
2023/07/06 03:01:27;;;;;;;7.70;5.20;;;;;;;18.66;80.01;100007.42;129485;1273;107263;-76
2023/07/06 03:04:33;;;;;;;8.20;5.00;;;;;;;18.68;80.25;100007.20;129459;1279;107300;-76
2023/07/06 03:07:38;;;;;;;11.80;5.30;;;;;;;18.66;80.85;100009.53;129486;1271;107620;-76
2023/07/06 03:10:46;;;;;;;9.50;5.80;;;;;;;18.61;81.30;100009.92;129515;1280;107534;-76
2023/07/06 03:13:51;;;;;;;10.20;5.60;;;;;;;18.53;81.83;100012.80;129536;1267;107545;-76
2023/07/06 03:16:57;;;;;;;8.20;5.50;;;;;;;18.49;82.65;100023.13;129517;1270;107957;-77
2023/07/06 03:20:13;;;;;;;8.80;5.50;;;;;;;18.48;83.14;100024.66;129418;1281;107339;-76
2023/07/06 03:23:18;;;;;;;9.60;5.80;;;;;;;18.44;85.40;100020.46;129580;1271;107269;-76
2023/07/06 03:26:24;;;;;;;6.50;5.40;;;;;;;18.40;84.33;100025.75;129530;1281;107437;-76
2023/07/06 03:29:30;;;;;;;9.00;5.90;;;;;;;18.41;84.00;100030.40;129278;1281;107549;-77
2023/07/06 03:32:37;;;;;;;8.20;5.10;;;;;;;18.46;83.46;100034.06;129555;1270;107280;-76
2023/07/06 03:35:43;;;;;;;8.30;5.30;;;;;;;18.55;83.38;100037.23;129522;1280;107458;-76
2023/07/06 03:38:50;;;;;;;7.40;5.30;;;;;;;18.63;83.00;100039.27;129518;1270;107424;-76
2023/07/06 03:41:57;;;;;;;9.70;5.60;;;;;;;18.67;83.82;100046.45;129516;1276;107610;-77
2023/07/06 03:45:05;;;;;;;9.60;4.80;;;;;;;18.66;83.69;100050.08;129505;1273;107524;-76
2023/07/06 03:48:10;;;;;;;8.30;5.40;;;;;;;18.69;83.82;100053.69;129516;1272;107590;-76
2023/07/06 03:51:16;;;;;;;9.90;5.60;;;;;;;18.66;83.80;100059.25;129500;1270;107502;-76
2023/07/06 03:54:22;;;;;;;8.80;5.70;;;;;;;18.67;84.33;100066.61;129502;1270;107559;-76
2023/07/06 03:57:31;;;;;;;10.10;5.00;;;;;;;18.67;83.59;100069.98;129580;1282;107306;-77
2023/07/06 04:00:38;;;;;;;8.00;5.10;;;;;;;18.67;84.24;100075.36;129495;1271;106519;-76
2023/07/06 04:03:45;;;;;;;6.90;4.80;;;;;;;18.66;83.44;100081.45;129475;1270;107497;-77
2023/07/06 04:06:51;;;;;;;7.30;5.00;;;;;;;18.71;83.84;100085.81;129544;1280;107405;-76
2023/07/06 04:09:57;;;;;;;9.10;5.30;;;;;;;18.68;83.88;100089.37;129488;1267;107251;-76
2023/07/06 04:13:03;;;;;;;6.90;5.00;;;;;;;18.63;83.26;100093.08;129580;1282;107378;-77
2023/07/06 04:16:16;;;;;;;6.60;4.70;;;;;;;18.67;83.39;100101.13;129471;1270;107408;-76
2023/07/06 04:19:21;;;;;;;6.70;5.10;;;;;;;18.70;82.98;100104.36;129531;1275;106298;-76
2023/07/06 04:22:27;;;;;;;8.00;5.40;;;;;;;18.77;83.07;100101.61;129512;1270;107583;-76
2023/07/06 04:25:35;;;;;;;7.20;5.00;;;;;;;18.77;82.72;100101.31;129501;1271;106821;-76
2023/07/06 04:28:42;;;;;;;9.20;4.60;;;;;;;18.86;82.12;100102.16;129554;1279;107573;-76
2023/07/06 04:31:47;;;;;;;7.00;4.00;;;;;;;18.97;81.86;100105.21;129502;1267;107515;-76
2023/07/06 04:34:54;;;;;;;8.30;5.00;;;;;;;19.07;81.51;100104.90;129492;1270;108656;-76
2023/07/06 04:38:00;;;;;;;6.50;4.30;;;;;;;19.15;81.39;100104.71;129495;1269;106723;-76
2023/07/06 04:41:06;;;;;;;9.70;3.80;;;;;;;19.32;81.11;100108.60;129457;1270;107507;-77
2023/07/06 04:44:12;;;;;;;6.90;4.30;;;;;;;19.33;80.07;100107.98;129553;1270;106581;-76
2023/07/06 04:47:18;;;;;;;7.00;4.30;;;;;;;19.25;79.93;100111.08;129418;1267;107541;-76
2023/07/06 04:50:24;;;;;;;5.70;3.70;;;;;;;19.19;79.86;100113.85;129481;1273;106452;-76
2023/07/06 04:53:32;;;;;;;6.20;4.00;;;;;;;19.18;79.91;100117.55;129310;1281;107291;-76
2023/07/06 04:56:38;;;;;;;5.80;4.20;;;;;;;19.29;79.65;100117.11;129437;1283;108433;-76
2023/07/06 04:59:44;;;;;;;5.40;4.20;;;;;;;19.43;79.24;100121.17;129551;1273;106699;-75
2023/07/06 05:02:49;;;;;;;6.50;4.30;;;;;;;19.62;78.63;100123.20;129505;1272;106761;-76
2023/07/06 05:05:55;;;;;;;5.00;4.00;;;;;;;19.72;77.61;100123.30;129503;1267;108233;-76
2023/07/06 05:09:03;;;;;;;7.10;4.10;;;;;;;19.84;77.84;100129.58;129514;1280;106447;-76
2023/07/06 05:12:10;;;;;;;6.10;4.00;;;;;;;19.95;76.91;100126.42;129509;1271;107239;-77
2023/07/06 05:15:16;;;;;;;4.70;3.80;;;;;;;19.89;76.90;100133.30;129569;1267;107620;-76
2023/07/06 05:18:22;;;;;;;5.00;3.40;;;;;;;19.92;76.69;100137.58;129542;1270;107614;-76
2023/07/06 05:21:28;;;;;;;5.80;3.90;;;;;;;20.12;77.53;100132.28;129526;1278;107168;-76
2023/07/06 05:24:33;;;;;;;6.80;3.90;;;;;;;20.25;76.71;100141.07;129511;1267;108497;-76
2023/07/06 05:27:39;;;;;;;5.70;4.00;;;;;;;20.22;74.84;100146.88;129558;1267;107619;-76
2023/07/06 05:30:45;;;;;;;5.80;3.70;;;;;;;20.02;75.23;100144.67;129492;1272;107581;-76
2023/07/06 05:33:51;;;;;;;5.50;3.80;;;;;;;19.98;76.17;100144.23;129529;1270;107412;-76
2023/07/06 05:36:56;;;;;;;4.40;3.90;;;;;;;19.99;75.36;100155.36;129486;1270;107511;-76
2023/07/06 05:40:04;;;;;;;5.90;4.00;;;;;;;20.05;75.44;100157.41;129517;1280;106548;-76
2023/07/06 05:43:10;;;;;;;5.20;4.20;;;;;;;20.24;75.86;100163.58;129530;1267;107418;-76
2023/07/06 05:46:15;;;;;;;4.50;3.70;;;;;;;20.37;73.82;100171.20;129490;1272;107565;-76
2023/07/06 05:49:21;;;;;;;5.60;4.10;;;;;;;20.45;73.71;100171.10;129545;1268;107633;-76
2023/07/06 05:52:27;;;;;;;4.60;3.50;;;;;;;20.62;74.19;100165.94;129476;1274;107585;-76
2023/07/06 05:55:33;;;;;;;5.60;3.90;;;;;;;20.88;73.87;100168.64;129489;1273;107456;-76
2023/07/06 05:58:40;;;;;;;5.00;3.80;;;;;;;20.98;72.34;100176.52;129513;1273;107405;-76
2023/07/06 06:01:45;;;;;;;7.70;4.00;;;;;;;20.98;72.21;100184.95;129432;1267;107306;-76
2023/07/06 06:04:51;;;;;;;5.30;4.20;;;;;;;20.80;71.29;100185.49;129483;1270;107616;-77
2023/07/06 06:07:58;;;;;;;5.10;4.30;;;;;;;20.56;71.77;100197.88;129497;1270;107625;-77
2023/07/06 06:11:04;;;;;;;5.90;4.50;;;;;;;20.47;71.85;100199.15;129517;1267;107617;-76
2023/07/06 06:14:10;;;;;;;5.70;3.60;;;;;;;20.45;71.97;100202.11;129492;1274;107184;-76
2023/07/06 06:17:18;;;;;;;5.70;3.70;;;;;;;20.52;71.95;100205.61;129517;1273;106141;-77
2023/07/06 06:20:24;;;;;;;5.30;3.60;;;;;;;20.58;71.57;100201.70;129523;1273;107550;-76
2023/07/06 06:23:32;;;;;;;4.60;3.90;;;;;;;20.67;71.13;100209.38;129525;1267;107481;-78
2023/07/06 06:26:42;;;;;;;6.30;3.80;;;;;;;20.73;71.85;100210.73;129279;1272;107586;-76
2023/07/06 06:29:48;;;;;;;4.90;3.90;;;;;;;20.65;70.73;100222.95;129564;1268;106589;-77
2023/07/06 06:32:56;;;;;;;6.50;3.90;;;;;;;20.57;70.42;100225.52;129518;1268;107319;-76
2023/07/06 06:36:03;;;;;;;4.90;3.60;;;;;;;20.68;71.59;100227.77;129525;1270;107423;-76
2023/07/06 06:39:09;;;;;;;3.90;3.20;;;;;;;20.85;71.25;100225.05;129482;1280;107479;-76
2023/07/06 06:42:15;;;;;;;5.50;3.30;;;;;;;20.97;70.22;100230.66;129487;1271;106715;-76
2023/07/06 06:45:23;;;;;;;4.30;3.30;;;;;;;21.00;69.06;100236.23;129536;1270;107512;-76
2023/07/06 06:48:28;;;;;;;3.40;3.10;;;;;;;21.01;67.90;100237.50;129495;1268;106705;-76
2023/07/06 06:51:34;;;;;;;4.10;3.10;;;;;;;21.01;66.75;100243.14;129509;1270;107454;-76
2023/07/06 06:54:40;;;;;;;7.00;3.70;;;;;;;21.03;66.66;100248.77;129524;1280;107581;-76
2023/07/06 06:57:46;;;;;;;3.80;3.00;;;;;;;20.98;63.70;100247.92;129579;1267;107424;-75
2023/07/06 07:00:51;;;;;;;6.20;3.00;;;;;;;21.01;65.11;100244.48;129496;1267;107601;-76
2023/07/06 07:04:00;;;;;;;4.30;3.10;;;;;;;21.14;65.18;100249.32;129495;1271;107475;-76
2023/07/06 07:07:06;;;;;;;4.30;3.30;;;;;;;21.28;64.85;100247.35;129482;1270;107491;-76
2023/07/06 07:10:12;;;;;;;4.70;3.00;;;;;;;21.34;64.22;100242.29;129475;1270;107557;-75
2023/07/06 07:13:18;;;;;;;4.00;3.10;;;;;;;21.43;65.23;100240.61;129573;1271;108019;-76
2023/07/06 07:16:24;;;;;;;5.60;3.00;;;;;;;21.55;64.81;100246.85;129498;1271;107565;-76
2023/07/06 07:19:30;;;;;;;6.40;3.40;;;;;;;21.65;65.27;100256.43;129506;1267;107565;-75
2023/07/06 07:22:36;;;;;;;4.80;2.80;;;;;;;21.66;62.19;100261.94;129509;1270;107434;-76
2023/07/06 07:25:41;;;;;;;4.80;3.00;;;;;;;21.72;63.58;100259.13;129516;1270;107236;-75
2023/07/06 07:28:48;;;;;;;8.60;2.50;;;;;;;21.86;61.39;100262.77;129505;1270;107523;-76
2023/07/06 07:31:53;;;;;;;3.40;2.50;;;;;;;21.85;59.14;100264.30;129494;1270;107598;-76
2023/07/06 07:35:01;;;;;;;3.00;2.20;;;;;;;21.91;58.53;100267.20;129507;1270;107246;-78
2023/07/06 07:38:07;;;;;;;7.00;2.00;;;;;;;21.95;58.25;100259.85;129222;1267;106828;-77
2023/07/06 07:41:18;;;;;;;4.80;2.40;;;;;;;22.06;59.04;100260.96;129396;1274;106563;-77
2023/07/06 07:44:28;;;;;;;3.00;2.20;;;;;;;22.21;58.56;100269.77;129276;1277;107256;-76
2023/07/06 07:47:33;;;;;;;2.80;2.00;;;;;;;22.31;56.07;100271.98;129628;1268;107426;-77
2023/07/06 07:50:39;;;;;;;2.50;2.20;;;;;;;22.50;55.02;100271.87;129647;1273;106774;-77
2023/07/06 07:53:45;;;;;;;2.50;2.30;;;;;;;22.72;54.00;100272.23;129670;1267;107393;-77
2023/07/06 07:56:53;;;;;;;3.70;2.00;;;;;;;22.92;53.89;100277.65;129601;1273;107498;-77
2023/07/06 07:59:59;;;;;;;3.00;2.10;;;;;;;22.92;52.27;100282.75;129764;1267;107712;-77
2023/07/06 08:03:06;;;;;;;3.40;2.00;;;;;;;22.99;53.58;100281.39;129526;1273;107420;-77
2023/07/06 08:06:16;;;;;;;2.30;2.00;;;;;;;23.01;51.56;100281.67;129496;1267;106606;-77
2023/07/06 08:09:23;;;;;;;2.50;2.10;;;;;;;22.95;51.80;100277.98;129481;1267;107405;-77
2023/07/06 08:12:31;;;;;;;2.90;1.90;;;;;;;22.92;50.92;100283.02;129515;1268;107284;-77
2023/07/06 08:15:39;;;;;;;2.80;2.20;;;;;;;22.85;50.15;100285.18;129547;1267;107262;-77
2023/07/06 08:18:44;;;;;;;2.40;2.00;;;;;;;22.86;51.06;100293.88;129426;1267;107538;-77
2023/07/06 08:25:13;;;;;;;3.30;2.00;;;;;;;22.91;52.09;100292.73;129503;1270;108616;-77
2023/07/06 08:28:21;;;;;;;4.40;1.80;;;;;;;22.98;50.80;100287.95;129507;1270;107533;-77
2023/07/06 08:31:27;;;;;;;2.30;1.90;;;;;;;22.96;50.49;100289.15;129543;1270;106912;-77
2023/07/06 08:34:33;;;;;;;3.30;1.70;;;;;;;22.98;49.32;100289.83;129510;1267;107547;-77
2023/07/06 08:37:39;;;;;;;4.10;2.00;;;;;;;23.08;49.75;100300.81;129457;1270;105826;-77
2023/07/06 08:40:48;;;;;;;2.40;2.00;;;;;;;23.20;49.52;100302.23;129502;1267;108481;-76
2023/07/06 08:43:54;;;;;;;3.90;1.80;;;;;;;23.24;48.28;100302.13;129585;1268;107779;-77
2023/07/06 08:47:00;;;;;;;3.90;2.30;;;;;;;23.24;48.69;100298.48;129518;1267;107392;-78
2023/07/06 08:50:09;;;;;;;5.10;2.10;;;;;;;23.26;48.05;100299.49;129434;1267;107643;-77
2023/07/06 08:53:16;;;;;;;3.30;1.90;;;;;;;23.27;46.75;100302.09;129476;1268;107428;-77
2023/07/06 08:56:24;;;;;;;3.60;1.80;;;;;;;23.31;45.03;100302.41;129462;1272;107582;-77
2023/07/06 08:59:40;;;;;;;2.40;1.60;;;;;;;23.45;46.98;100298.19;129480;1270;107530;-77
2023/07/06 09:02:48;;;;;;;3.00;1.80;;;;;;;23.60;45.25;100304.54;129452;1270;107615;-76
2023/07/06 09:05:54;;;;;;;4.00;1.90;;;;;;;23.63;43.50;100303.39;129453;1267;107576;-77
2023/07/06 09:09:02;;;;;;;3.70;1.60;;;;;;;23.60;43.90;100300.45;129531;1270;107640;-77
2023/07/06 09:12:18;;;;;;;2.00;1.50;;;;;;;23.74;44.93;100301.17;129506;1270;107681;-77
2023/07/06 09:15:28;;;;;;;3.90;1.60;;;;;;;23.81;42.74;100304.41;129559;1267;107546;-76
2023/07/06 09:18:33;;;;;;;1.90;1.50;;;;;;;23.77;42.79;100310.77;129475;1270;107518;-78
2023/07/06 09:21:39;;;;;;;3.20;1.60;;;;;;;23.79;42.72;100308.23;129406;1270;107594;-77
2023/07/06 09:24:48;;;;;;;3.30;1.70;;;;;;;23.94;42.97;100311.45;129475;1271;107520;-77
2023/07/06 09:27:55;;;;;;;2.90;1.70;;;;;;;24.25;42.96;100316.77;129536;1267;107599;-77
2023/07/06 09:31:22;;;;;;;3.90;1.40;;;;;;;24.44;42.39;100314.86;129463;1271;107967;-77
2023/07/06 09:34:30;;;;;;;3.60;1.80;;;;;;;24.55;41.86;100307.13;129463;1270;108719;-76
2023/07/06 09:37:46;;;;;;;2.80;2.10;;;;;;;24.64;42.89;100298.73;129512;1270;107549;-77
2023/07/06 09:40:52;;;;;;;2.60;2.00;;;;;;;24.58;39.30;100297.26;129541;1270;107582;-77
2023/07/06 09:44:03;;;;;;;2.80;1.90;;;;;;;24.54;40.88;100295.17;129508;1270;107185;-77
2023/07/06 09:47:12;;;;;;;3.30;1.80;;;;;;;24.60;37.83;100296.69;129480;1270;107472;-77
2023/07/06 09:50:23;;;;;;;2.40;2.00;;;;;;;24.68;39.84;100302.52;129608;1267;107483;-77
2023/07/06 09:53:32;;;;;;;3.50;1.80;;;;;;;24.78;37.86;100302.04;129460;1267;107279;-77
2023/07/06 09:56:38;;;;;;;5.10;1.60;;;;;;;24.70;38.29;100297.19;129512;1273;107666;-77
2023/07/06 09:59:47;;;;;;;3.30;1.90;;;;;;;24.68;37.20;100303.06;129456;1267;107537;-77
2023/07/06 10:03:01;;;;;;;3.90;1.90;;;;;;;24.69;37.50;100299.64;129465;1267;108192;-77
2023/07/06 10:06:19;;;;;;;2.70;1.90;;;;;;;24.72;36.73;100302.85;129473;1267;107534;-77
2023/07/06 10:09:29;;;;;;;3.00;1.90;;;;;;;24.68;37.21;100307.90;129391;1273;107606;-77
2023/07/06 10:12:43;;;;;;;2.30;1.70;;;;;;;24.65;36.41;100301.32;129394;1274;107585;-77
2023/07/06 10:15:56;;;;;;;3.50;1.90;;;;;;;24.62;36.71;100303.05;129488;1274;107480;-77
2023/07/06 10:19:12;;;;;;;3.40;1.80;;;;;;;24.54;35.77;100307.74;129574;1267;108128;-77
2023/07/06 10:22:27;;;;;;;5.90;2.10;;;;;;;24.52;37.43;100310.39;129594;1267;107963;-77
2023/07/06 10:25:37;;;;;;;2.00;1.60;;;;;;;24.53;37.08;100309.21;129461;1267;107580;-77
2023/07/06 10:28:47;;;;;;;3.50;1.70;;;;;;;24.53;36.89;100314.78;129430;1272;107476;-77
2023/07/06 10:31:56;;;;;;;3.70;1.80;;;;;;;24.64;38.21;100312.15;129484;1273;107531;-78
2023/07/06 10:35:06;;;;;;;2.40;1.70;;;;;;;24.83;37.52;100310.91;129344;1267;107407;-77
2023/07/06 10:38:13;;;;;;;2.50;1.80;;;;;;;24.84;36.74;100320.09;129476;1267;107630;-77
2023/07/06 10:41:29;;;;;;;3.40;1.90;;;;;;;24.72;36.95;100322.77;129445;1270;107488;-77
2023/07/06 10:44:51;;;;;;;3.60;1.60;;;;;;;24.60;36.45;100328.02;129475;1271;107476;-77
2023/07/06 10:48:13;;;;;;;3.90;2.00;;;;;;;24.48;36.66;100334.30;129469;1268;107282;-77
2023/07/06 10:51:23;;;;;;;3.70;1.80;;;;;;;24.27;36.06;100344.36;129441;1268;107569;-76
2023/07/06 10:54:34;;;;;;;5.00;1.90;;;;;;;24.22;37.89;100350.42;129540;1270;107526;-76
2023/07/06 10:57:51;;;;;;;2.40;1.70;;;;;;;24.14;37.49;100357.35;129499;1270;107317;-76
2023/07/06 11:00:59;;;;;;;2.90;1.60;;;;;;;24.04;38.40;100353.88;129568;1267;107291;-76
2023/07/06 11:04:41;;;;;;;4.20;1.90;;;;;;;23.95;37.47;100360.91;129431;1270;107515;-76
2023/07/06 11:07:50;;;;;;;3.90;2.40;;;;;;;23.66;37.69;100358.27;129138;1273;107355;-76
2023/07/06 11:11:02;;;;;;;5.20;1.90;;;;;;;23.43;37.25;100361.16;129219;1268;108889;-76
2023/07/06 11:14:31;;;;;;;5.60;2.30;;;;;;;23.27;37.45;100373.52;129209;1268;107291;-76
2023/07/06 11:17:47;;;;;;;4.90;2.00;;;;;;;23.18;37.33;100375.14;129361;1267;108036;-77
2023/07/06 11:20:57;;;;;;;3.80;1.90;;;;;;;23.15;38.60;100370.77;129353;1274;106985;-76
2023/07/06 11:24:06;;;;;;;3.40;1.80;;;;;;;23.27;38.83;100369.16;129366;1273;107615;-76
2023/07/06 11:27:24;;;;;;;3.90;2.10;;;;;;;23.33;39.05;100376.35;129345;1267;107499;-76
2023/07/06 11:30:40;;;;;;;3.50;1.90;;;;;;;23.30;39.45;100383.82;129388;1267;106976;-76
2023/07/06 11:34:03;;;;;;;3.10;2.20;;;;;;;23.15;40.37;100386.40;129466;1271;107272;-76
2023/07/06 11:37:18;;;;;;;4.70;2.20;;;;;;;23.09;40.83;100389.45;129508;1270;107424;-76
2023/07/06 11:40:38;;;;;;;5.20;1.90;;;;;;;23.03;41.39;100392.98;129486;1270;107427;-76
2023/07/06 11:44:03;;;;;;;4.20;2.00;;;;;;;23.07;41.73;100395.38;129506;1270;107675;-76
2023/07/06 11:47:24;;;;;;;3.00;2.00;;;;;;;23.27;41.77;100395.30;129511;1267;108266;-76
2023/07/06 11:50:37;;;;;;;5.40;2.00;;;;;;;23.50;41.94;100395.80;129521;1270;106948;-75
2023/07/06 11:53:44;;;;;;;3.70;2.10;;;;;;;23.65;41.89;100395.30;129474;1267;107341;-75
2023/07/06 11:56:54;;;;;;;3.00;2.00;;;;;;;23.77;41.94;100398.42;129478;1270;107578;-76
2023/07/06 12:00:18;;;;;;;4.40;1.90;;;;;;;23.90;41.31;100399.89;129535;1270;108480;-76
2023/07/06 12:03:29;;;;;;;6.20;1.90;;;;;;;24.04;41.82;100396.70;129505;1265;107244;-77
2023/07/06 12:06:35;;;;;;;4.20;2.30;;;;;;;24.22;40.68;100390.84;129544;1267;107555;-74
2023/07/06 12:09:44;;;;;;;6.20;2.20;;;;;;;24.29;40.97;100385.84;129493;1270;107707;-75
2023/07/06 12:12:52;;;;;;;3.10;1.90;;;;;;;24.34;40.00;100384.70;129496;1267;107476;-75
2023/07/06 12:16:07;;;;;;;3.70;2.20;;;;;;;24.30;40.33;100382.33;129542;1266;108443;-75
2023/07/06 12:19:17;;;;;;;3.10;1.90;;;;;;;24.41;40.07;100379.76;129506;1270;107515;-75
2023/07/06 12:22:23;;;;;;;6.10;2.10;;;;;;;24.48;39.91;100374.36;129539;1268;107698;-76
2023/07/06 12:25:29;;;;;;;4.00;2.20;;;;;;;24.54;40.18;100372.52;129441;1267;105942;-76
2023/07/06 12:28:37;;;;;;;2.60;1.80;;;;;;;24.59;39.28;100373.55;129470;1271;107585;-76
2023/07/06 12:31:43;;;;;;;4.20;2.10;;;;;;;24.41;38.76;100369.35;129458;1267;107563;-76
2023/07/06 12:34:50;;;;;;;3.00;2.00;;;;;;;24.30;39.38;100366.13;129504;1271;107483;-75
2023/07/06 12:37:56;;;;;;;3.20;2.10;;;;;;;24.40;39.92;100364.38;129523;1270;107475;-76
2023/07/06 12:41:15;;;;;;;4.30;1.90;;;;;;;24.59;39.94;100363.13;129327;1271;136985;-76
2023/07/06 12:44:24;;;;;;;2.90;1.80;;;;;;;24.76;39.15;100358.39;129578;1267;107081;-75
2023/07/06 12:47:41;;;;;;;2.50;1.90;;;;;;;24.92;39.26;100352.17;129509;1270;106405;-76
2023/07/06 12:50:50;;;;;;;3.70;2.00;;;;;;;25.02;38.34;100347.29;129574;1267;107413;-75
2023/07/06 12:53:57;;;;;;;4.00;1.80;;;;;;;25.12;38.03;100350.66;129473;1271;107297;-75
2023/07/06 12:57:18;;;;;;;3.40;1.90;;;;;;;25.21;38.29;100350.54;129473;1270;107478;-78
2023/07/06 13:00:26;;;;;;;3.20;2.30;;;;;;;25.19;36.31;100356.46;129612;1270;107585;-76
2023/07/06 13:03:47;;;;;;;2.30;1.90;;;;;;;25.09;36.72;100346.73;129518;1267;107546;-77
2023/07/06 13:06:54;;;;;;;2.70;2.00;;;;;;;24.87;37.14;100349.13;129528;1270;107471;-76
2023/07/06 13:09:59;;;;;;;4.00;2.00;;;;;;;24.87;36.78;100350.12;129457;1270;107401;-76
2023/07/06 13:13:18;;;;;;;2.50;1.90;;;;;;;24.79;35.16;100354.98;129403;1270;107672;-73
2023/07/06 13:16:23;;;;;;;4.20;2.00;;;;;;;24.45;35.02;100354.80;129501;1270;107628;-73
2023/07/06 13:19:33;;;;;;;3.90;2.10;;;;;;;24.27;34.99;100353.69;129450;1270;107477;-73
2023/07/06 13:22:39;;;;;;;4.30;2.20;;;;;;;24.01;34.58;100352.04;129482;1270;107528;-73
2023/07/06 13:25:49;;;;;;;3.00;1.90;;;;;;;23.77;34.31;100356.69;129553;1268;107553;-73
2023/07/06 13:28:55;;;;;;;4.00;2.20;;;;;;;23.57;35.07;100345.61;129569;1270;107499;-73
2023/07/06 13:32:03;;;;;;;2.10;1.80;;;;;;;23.61;35.91;100342.46;129474;1266;107216;-72
2023/07/06 13:35:12;;;;;;;3.20;1.80;;;;;;;23.75;36.77;100341.93;129467;1270;107458;-72
2023/07/06 13:38:18;;;;;;;4.70;1.90;;;;;;;23.99;37.16;100334.52;129412;1270;106483;-72
2023/07/06 13:41:28;;;;;;;3.00;2.10;;;;;;;24.13;37.21;100335.13;129431;1270;107431;-72
2023/07/06 13:44:34;;;;;;;3.70;2.00;;;;;;;24.10;36.94;100338.28;129589;1268;107306;-74
2023/07/06 13:47:40;;;;;;;3.50;2.10;;;;;;;24.08;37.05;100338.02;129501;1270;107289;-74
2023/07/06 13:50:48;;;;;;;3.80;2.00;;;;;;;24.02;36.68;100345.19;129639;1270;107481;-71
2023/07/06 13:53:54;;;;;;;3.00;2.00;;;;;;;24.08;37.11;100341.09;129491;1268;107252;-73
2023/07/06 13:57:00;;;;;;;4.00;2.30;;;;;;;24.26;37.03;100343.08;129500;1268;107404;-76
2023/07/06 14:00:09;;;;;;;2.90;2.00;;;;;;;24.37;37.10;100337.15;129510;1267;107296;-73
2023/07/06 14:03:23;;;;;;;2.70;1.90;;;;;;;24.41;36.99;100338.14;129411;1270;107498;-72
2023/07/06 14:06:29;;;;;;;3.30;2.10;;;;;;;24.49;36.89;100338.14;129543;1268;108697;-71
2023/07/06 14:09:35;;;;;;;2.90;1.90;;;;;;;24.45;36.27;100341.49;129534;1270;107594;-72
2023/07/06 14:12:42;;;;;;;2.20;1.90;;;;;;;24.42;36.73;100341.98;129440;1268;107274;-72
2023/07/06 14:15:49;;;;;;;2.70;1.90;;;;;;;24.57;37.00;100337.34;129344;1273;107716;-73
2023/07/06 14:18:54;;;;;;;3.40;1.70;;;;;;;24.81;36.68;100336.86;129212;1267;107743;-73
2023/07/06 14:22:00;;;;;;;3.00;1.80;;;;;;;24.93;34.63;100337.05;129287;1267;107690;-72
2023/07/06 14:25:16;;;;;;;3.50;2.00;;;;;;;24.80;34.95;100334.75;129186;1273;107514;-72